createdAt,value
2022-11-16T00:01:54.454Z,10.73
2022-11-16T00:04:23.667Z,10.73
2022-11-16T00:06:51.540Z,10.23
2022-11-16T00:09:27.097Z,10.80
2022-11-16T00:11:56.834Z,10.47
2022-11-16T00:14:26.767Z,10.03
2022-11-16T00:16:54.864Z,10.80
2022-11-16T00:19:24.627Z,9.97
2022-11-16T00:21:52.751Z,10.10
2022-11-16T00:24:22.118Z,9.90
2022-11-16T00:26:50.379Z,10.57
2022-11-16T00:29:20.585Z,10.10
2022-11-16T00:31:49.011Z,10.33
2022-11-16T00:34:16.836Z,10.00
2022-11-16T00:36:46.097Z,10.63
2022-11-16T00:39:14.841Z,9.80
2022-11-16T00:41:43.644Z,8.47
2022-11-16T00:44:11.452Z,9.60
2022-11-16T00:46:39.295Z,9.67
2022-11-16T00:49:07.251Z,9.60
2022-11-16T00:51:36.126Z,9.83
2022-11-16T00:54:06.923Z,9.40
2022-11-16T00:56:34.890Z,10.33
2022-11-16T00:59:02.594Z,11.20
2022-11-16T01:01:30.387Z,10.47
2022-11-16T01:03:58.160Z,9.77
2022-11-16T01:06:25.998Z,11.20
2022-11-16T01:08:53.734Z,11.10
2022-11-16T01:11:54.820Z,10.53
2022-11-16T01:14:22.501Z,9.77
2022-11-16T01:16:50.689Z,10.10
2022-11-16T01:19:18.483Z,10.83
2022-11-16T01:21:46.187Z,10.13
2022-11-16T01:24:13.939Z,11.03
2022-11-16T01:26:43.262Z,10.87
2022-11-16T01:29:11.054Z,9.97
2022-11-16T01:31:38.752Z,10.80
2022-11-16T01:34:06.469Z,10.87
2022-11-16T01:36:36.579Z,10.33
2022-11-16T01:39:05.766Z,10.43
2022-11-16T01:41:34.171Z,10.80
2022-11-16T01:44:05.762Z,10.63
2022-11-16T01:46:33.730Z,11.17
2022-11-16T01:49:04.817Z,10.70
2022-11-16T01:51:33.504Z,10.87
2022-11-16T01:54:03.816Z,11.50
2022-11-16T01:56:33.877Z,12.37
2022-11-16T01:59:03.318Z,10.23
2022-11-16T02:01:31.081Z,11.70
2022-11-16T02:03:58.889Z,10.83
2022-11-16T02:06:41.991Z,10.70
2022-11-16T02:09:53.607Z,10.90
2022-11-16T02:12:39.110Z,10.53
2022-11-16T02:15:16.570Z,11.83
2022-11-16T02:17:52.235Z,11.07
2022-11-16T02:20:44.487Z,11.37
2022-11-16T02:23:33.211Z,10.87
2022-11-16T02:26:13.706Z,11.40
2022-11-16T02:28:50.115Z,10.73
2022-11-16T02:31:24.655Z,11.23
2022-11-16T02:33:55.143Z,11.23
2022-11-16T02:36:25.902Z,10.70
2022-11-16T02:38:59.137Z,10.53
2022-11-16T02:41:29.574Z,10.10
2022-11-16T02:44:03.938Z,11.03
2022-11-16T02:46:38.175Z,10.00
2022-11-16T02:49:10.292Z,10.67
2022-11-16T02:51:39.964Z,10.80
2022-11-16T02:54:12.819Z,10.73
2022-11-16T02:56:51.508Z,11.33
2022-11-16T02:59:19.695Z,10.87
2022-11-16T03:01:54.574Z,11.63
2022-11-16T03:04:29.372Z,11.63
2022-11-16T03:06:59.357Z,10.83
2022-11-16T03:09:31.998Z,11.73
2022-11-16T03:12:01.008Z,12.87
2022-11-16T03:14:34.225Z,11.27
2022-11-16T03:17:05.934Z,12.73
2022-11-16T03:19:38.850Z,12.87
2022-11-16T03:22:11.677Z,11.47
2022-11-16T03:24:39.835Z,13.30
2022-11-16T03:27:13.744Z,12.60
2022-11-16T03:29:46.434Z,13.30
2022-11-16T03:32:21.447Z,12.37
2022-11-16T03:34:55.737Z,13.47
2022-11-16T03:37:26.010Z,13.57
2022-11-16T03:39:55.111Z,11.33
2022-11-16T03:42:24.336Z,14.70
2022-11-16T03:44:52.973Z,13.07
2022-11-16T03:47:22.329Z,14.37
2022-11-16T03:49:50.016Z,13.77
2022-11-16T03:52:18.296Z,15.17
2022-11-16T03:54:45.992Z,13.70
2022-11-16T03:57:18.028Z,14.13
2022-11-16T03:59:45.940Z,14.00
2022-11-16T04:02:14.027Z,15.20
2022-11-16T04:05:00.650Z,14.30
2022-11-16T04:07:45.863Z,15.90
2022-11-16T04:10:31.611Z,15.70
2022-11-16T04:13:18.112Z,15.13
2022-11-16T04:16:03.288Z,14.03
2022-11-16T04:18:48.610Z,15.90
2022-11-16T04:21:41.396Z,17.03
2022-11-16T04:24:14.131Z,15.87
2022-11-16T04:27:02.382Z,15.87
2022-11-16T04:29:30.574Z,14.80
2022-11-16T04:32:16.028Z,15.00
2022-11-16T04:35:01.263Z,14.27
2022-11-16T04:37:48.022Z,14.43
2022-11-16T04:40:16.797Z,14.13
2022-11-16T04:42:44.584Z,14.57
2022-11-16T04:45:29.810Z,13.70
2022-11-16T04:47:57.531Z,14.07
2022-11-16T04:50:25.237Z,13.47
2022-11-16T04:52:54.287Z,13.47
2022-11-16T04:55:22.105Z,14.03
2022-11-16T04:57:50.081Z,11.80
2022-11-16T05:00:18.601Z,13.03
2022-11-16T05:02:46.511Z,13.30
2022-11-16T05:05:14.834Z,14.10
2022-11-16T05:07:43.153Z,12.40
2022-11-16T05:10:12.630Z,11.37
2022-11-16T05:12:40.345Z,12.53
2022-11-16T05:15:09.268Z,12.00
2022-11-16T05:17:37.062Z,11.93
2022-11-16T05:20:22.823Z,11.50
2022-11-16T05:22:54.674Z,11.20
2022-11-16T05:25:23.829Z,12.03
2022-11-16T05:27:51.572Z,10.60
2022-11-16T05:30:19.578Z,11.23
2022-11-16T05:32:47.644Z,11.90
2022-11-16T05:35:15.354Z,11.33
2022-11-16T05:37:43.119Z,11.33
2022-11-16T05:40:12.188Z,10.23
2022-11-16T05:42:41.235Z,11.17
2022-11-16T05:45:09.475Z,9.97
2022-11-16T05:47:37.196Z,10.47
2022-11-16T05:50:05.347Z,11.67
2022-11-16T05:52:33.011Z,11.30
2022-11-16T05:55:00.707Z,11.27
2022-11-16T05:57:28.397Z,10.90
2022-11-16T05:59:57.464Z,10.10
2022-11-16T06:02:25.207Z,10.57
2022-11-16T06:04:52.885Z,10.63
2022-11-16T06:07:20.672Z,11.33
2022-11-16T06:09:48.423Z,9.93
2022-11-16T06:12:16.337Z,9.97
2022-11-16T06:14:44.047Z,9.93
2022-11-16T06:17:14.541Z,9.30
2022-11-16T06:19:42.322Z,8.90
2022-11-16T06:22:10.031Z,8.77
2022-11-16T06:24:37.796Z,8.50
2022-11-16T06:27:05.493Z,7.73
2022-11-16T06:29:33.161Z,8.60
2022-11-16T06:32:00.880Z,7.60
2022-11-16T06:34:29.951Z,7.70
2022-11-16T06:36:57.673Z,7.47
2022-11-16T06:39:25.363Z,8.13
2022-11-16T06:41:53.053Z,6.50
2022-11-16T06:44:20.732Z,7.80
2022-11-16T06:46:48.429Z,6.57
2022-11-16T06:49:16.135Z,7.50
2022-11-16T06:51:45.397Z,7.60
2022-11-16T06:54:13.089Z,6.23
2022-11-16T06:56:40.839Z,7.27
2022-11-16T06:59:08.539Z,6.73
2022-11-16T07:01:36.286Z,6.37
2022-11-16T07:04:04.061Z,7.20
2022-11-16T07:06:31.813Z,6.80
2022-11-16T07:09:00.877Z,6.40
2022-11-16T07:11:28.582Z,6.47
2022-11-16T07:13:56.274Z,6.70
2022-11-16T07:16:24.056Z,6.13
2022-11-16T07:18:51.786Z,6.20
2022-11-16T07:21:19.921Z,6.07
2022-11-16T07:23:47.623Z,5.67
2022-11-16T07:26:16.779Z,5.83
2022-11-16T07:28:48.611Z,4.83
2022-11-16T07:31:17.133Z,5.30
2022-11-16T07:33:44.846Z,5.07
2022-11-16T07:36:14.135Z,6.83
2022-11-16T07:38:42.207Z,4.70
2022-11-16T07:41:12.386Z,4.53
2022-11-16T07:43:41.742Z,4.83
2022-11-16T07:48:59.866Z,4.33
2022-11-16T07:51:27.609Z,5.30
2022-11-16T07:53:56.279Z,4.87
2022-11-16T07:56:24.888Z,4.40
2022-11-16T07:58:54.227Z,4.40
2022-11-16T08:01:21.963Z,4.90
2022-11-16T08:03:53.540Z,4.53
2022-11-16T08:06:24.680Z,4.37
2022-11-16T08:08:57.839Z,4.13
2022-11-16T08:11:26.596Z,4.03
2022-11-16T08:13:57.827Z,3.80
2022-11-16T08:16:25.557Z,4.30
2022-11-16T08:18:53.270Z,3.87
2022-11-16T08:21:21.193Z,4.20
2022-11-16T08:23:50.689Z,4.00
2022-11-16T08:26:22.391Z,4.13
2022-11-16T08:28:53.670Z,4.50
2022-11-16T08:31:25.379Z,3.90
2022-11-16T08:33:53.267Z,3.50
2022-11-16T08:36:21.759Z,3.37
2022-11-16T08:38:51.307Z,3.67
2022-11-16T08:41:20.665Z,3.80
2022-11-16T08:43:50.572Z,4.13
2022-11-16T08:46:18.645Z,3.80
2022-11-16T08:48:47.792Z,4.47
2022-11-16T08:51:19.517Z,3.50
2022-11-16T08:53:49.075Z,3.27
2022-11-16T08:56:18.804Z,3.50
2022-11-16T08:58:49.531Z,3.50
2022-11-16T09:01:22.525Z,3.00
2022-11-16T09:03:53.041Z,3.30
2022-11-16T09:06:20.821Z,3.10
2022-11-16T09:08:48.972Z,3.10
2022-11-16T09:11:18.781Z,3.23
2022-11-16T09:13:48.296Z,3.10
2022-11-16T09:16:16.969Z,2.80
2022-11-16T09:18:46.284Z,2.97
2022-11-16T09:21:18.238Z,2.80
2022-11-16T09:23:45.993Z,3.00
2022-11-16T09:26:13.917Z,3.37
2022-11-16T09:28:41.703Z,3.13
2022-11-16T09:31:10.240Z,2.80
2022-11-16T09:33:38.286Z,3.10
2022-11-16T09:36:08.342Z,2.33
2022-11-16T09:39:13.299Z,2.73
2022-11-16T09:41:49.075Z,2.20
2022-11-16T09:44:37.799Z,2.53
2022-11-16T09:47:09.884Z,2.27
2022-11-16T09:49:41.989Z,2.20
2022-11-16T09:52:17.042Z,2.30
2022-11-16T09:54:47.024Z,2.37
2022-11-16T09:57:19.465Z,2.70
2022-11-16T09:59:50.770Z,2.30
2022-11-16T10:02:25.256Z,2.37
2022-11-16T10:04:58.914Z,2.60
2022-11-16T10:07:32.720Z,2.23
2022-11-16T10:10:01.874Z,2.23
2022-11-16T10:12:37.750Z,2.17
2022-11-16T10:15:20.120Z,2.30
2022-11-16T10:18:00.946Z,2.20
2022-11-16T10:20:46.495Z,2.40
2022-11-16T10:23:26.505Z,2.07
2022-11-16T10:25:59.272Z,2.40
2022-11-16T10:28:53.344Z,1.83
2022-11-16T10:31:28.539Z,2.00
2022-11-16T10:33:59.783Z,2.03
2022-11-16T10:36:31.693Z,2.23
2022-11-16T10:39:02.485Z,2.03
2022-11-16T10:41:38.508Z,2.20
2022-11-16T10:44:16.013Z,2.63
2022-11-16T10:46:52.771Z,2.40
2022-11-16T10:49:27.181Z,2.83
2022-11-16T10:51:54.886Z,2.67
2022-11-16T10:54:22.613Z,2.90
2022-11-16T10:57:03.661Z,2.93
2022-11-16T10:59:42.772Z,2.87
2022-11-16T11:02:35.509Z,3.20
2022-11-16T11:05:15.207Z,3.40
2022-11-16T11:07:46.783Z,3.47
2022-11-16T11:10:30.666Z,3.37
2022-11-16T11:13:18.758Z,3.23
2022-11-16T11:15:48.038Z,3.53
2022-11-16T11:18:29.711Z,3.27
2022-11-16T11:21:10.124Z,4.07
2022-11-16T11:23:45.213Z,3.00
2022-11-16T11:26:34.718Z,3.60
2022-11-16T11:29:18.335Z,3.87
2022-11-16T11:31:48.488Z,4.70
2022-11-16T11:34:21.309Z,4.63
2022-11-16T11:36:51.757Z,4.10
2022-11-16T11:39:36.504Z,4.87
2022-11-16T11:42:21.734Z,4.50
2022-11-16T11:44:57.118Z,4.97
2022-11-16T11:50:37.248Z,4.77
2022-11-16T11:53:09.106Z,4.53
2022-11-16T11:55:36.809Z,4.33
2022-11-16T11:58:07.057Z,4.37
2022-11-16T12:00:52.292Z,4.77
2022-11-16T12:03:58.485Z,4.80
2022-11-16T12:06:34.109Z,4.60
2022-11-16T12:09:30.489Z,4.17
2022-11-16T12:12:14.893Z,4.87
2022-11-16T12:15:02.015Z,3.93
2022-11-16T12:17:42.737Z,4.23
2022-11-16T12:20:22.893Z,4.13
2022-11-16T12:23:08.367Z,4.07
2022-11-16T12:25:44.356Z,4.47
2022-11-16T12:28:26.300Z,4.03
2022-11-16T12:31:08.673Z,4.40
2022-11-16T12:33:50.804Z,4.40
2022-11-16T12:36:30.589Z,4.00
2022-11-16T12:39:14.020Z,3.70
2022-11-16T12:41:59.139Z,4.40
2022-11-16T12:44:40.636Z,4.27
2022-11-16T12:47:22.658Z,4.17
2022-11-16T12:50:08.232Z,4.27
2022-11-16T12:52:52.821Z,4.30
2022-11-16T12:55:28.402Z,4.87
2022-11-16T12:58:11.368Z,4.20
2022-11-16T13:00:53.153Z,4.57
2022-11-16T13:03:29.700Z,4.07
2022-11-16T13:06:04.562Z,4.03
2022-11-16T13:08:54.631Z,4.10
2022-11-16T13:11:26.829Z,3.80
2022-11-16T13:13:59.344Z,4.07
2022-11-16T13:16:28.563Z,4.23
2022-11-16T13:18:59.139Z,3.90
2022-11-16T13:21:37.518Z,4.13
2022-11-16T13:24:20.659Z,3.80
2022-11-16T13:26:55.887Z,3.70
2022-11-16T13:29:33.295Z,4.50
2022-11-16T13:32:06.777Z,4.10
2022-11-16T13:34:38.699Z,3.60
2022-11-16T13:37:44.811Z,3.83
2022-11-16T13:40:27.534Z,3.90
2022-11-16T13:43:17.998Z,3.90
2022-11-16T13:45:53.970Z,3.63
2022-11-16T13:48:26.148Z,3.30
2022-11-16T13:50:55.931Z,3.23
2022-11-16T13:54:25.219Z,3.33
2022-11-16T13:56:18.047Z,3.60
2022-11-16T13:58:47.977Z,3.37
2022-11-16T14:01:16.331Z,3.07
2022-11-16T14:03:44.965Z,2.90
2022-11-16T14:06:49.933Z,3.20
2022-11-16T14:09:49.773Z,3.37
2022-11-16T14:12:57.245Z,2.70
2022-11-16T14:15:30.940Z,2.60
2022-11-16T14:18:02.611Z,3.30
2022-11-16T14:20:46.882Z,3.07
2022-11-16T14:23:39.186Z,2.80
2022-11-16T14:26:20.363Z,2.80
2022-11-16T14:29:23.244Z,2.47
2022-11-16T14:31:53.727Z,3.33
2022-11-16T14:34:28.092Z,2.50
2022-11-16T14:36:56.526Z,2.67
2022-11-16T14:39:30.015Z,2.60
2022-11-16T14:42:02.381Z,2.77
2022-11-16T14:44:33.322Z,3.53
2022-11-16T14:47:03.682Z,3.10
2022-11-16T14:49:34.643Z,2.87
2022-11-16T14:52:04.911Z,3.37
2022-11-16T14:54:38.760Z,2.60
2022-11-16T14:57:13.693Z,3.23
2022-11-16T14:59:41.416Z,2.90
2022-11-16T15:02:18.893Z,3.30
2022-11-16T15:04:47.048Z,3.17
2022-11-16T15:07:15.953Z,3.47
2022-11-16T15:09:48.576Z,4.00
2022-11-16T15:12:37.959Z,3.60
2022-11-16T15:15:09.220Z,3.50
2022-11-16T15:17:37.625Z,3.40
2022-11-16T15:20:17.553Z,3.63
2022-11-16T15:22:47.151Z,2.93
2022-11-16T15:25:26.668Z,3.40
2022-11-16T15:27:57.204Z,2.90
2022-11-16T15:30:26.827Z,4.00
2022-11-16T15:32:54.776Z,3.20
2022-11-16T15:35:24.276Z,3.63
2022-11-16T15:38:02.623Z,3.40
2022-11-16T15:40:31.094Z,3.60
2022-11-16T15:43:06.453Z,3.30
2022-11-16T15:45:35.082Z,3.70
2022-11-16T15:48:05.134Z,3.20
2022-11-16T15:50:33.344Z,3.30
2022-11-16T15:53:01.141Z,7.10
2022-11-16T15:55:34.101Z,3.37
2022-11-16T15:58:06.703Z,3.50
2022-11-16T16:00:37.256Z,3.83
2022-11-16T16:03:21.466Z,3.50
2022-11-16T16:05:49.871Z,3.30
2022-11-16T16:08:32.640Z,3.40
2022-11-16T16:11:02.418Z,3.37
2022-11-16T16:13:34.218Z,3.70
2022-11-16T16:16:27.307Z,3.63
2022-11-16T16:19:14.403Z,3.53
2022-11-16T16:21:45.018Z,3.23
2022-11-16T16:24:41.268Z,3.73
2022-11-16T16:27:17.744Z,3.77
2022-11-16T16:29:48.160Z,3.47
2022-11-16T16:32:24.237Z,3.17
2022-11-16T16:34:52.152Z,3.20
2022-11-16T16:37:19.880Z,2.60
2022-11-16T16:39:47.622Z,2.50
2022-11-16T16:42:17.131Z,2.70
2022-11-16T16:44:48.455Z,2.40
2022-11-16T16:47:17.410Z,2.30
2022-11-16T16:49:45.095Z,2.17
2022-11-16T16:52:13.797Z,2.27
2022-11-16T16:54:41.610Z,2.40
2022-11-16T16:57:14.240Z,1.90
2022-11-16T16:59:41.982Z,2.00
2022-11-16T17:02:12.299Z,1.70
2022-11-16T17:04:40.042Z,1.80
2022-11-16T17:07:08.111Z,2.00
2022-11-16T17:09:35.818Z,1.83
2022-11-16T17:12:03.561Z,2.00
2022-11-16T17:14:31.342Z,2.07
2022-11-16T17:17:02.713Z,1.87
2022-11-16T17:19:31.805Z,1.90
2022-11-16T17:21:59.999Z,1.80
2022-11-16T17:24:27.743Z,1.77
2022-11-16T17:26:55.461Z,1.80
2022-11-16T17:29:23.202Z,1.60
2022-11-16T17:31:50.928Z,1.70
2022-11-16T17:34:18.725Z,1.53
2022-11-16T17:36:48.047Z,1.63
2022-11-16T17:39:15.908Z,1.70
2022-11-16T17:41:43.748Z,1.83
2022-11-16T17:44:11.516Z,1.70
2022-11-16T17:46:39.239Z,2.30
2022-11-16T17:49:06.973Z,1.97
2022-11-16T17:51:34.686Z,1.50
2022-11-16T17:54:03.839Z,1.60
2022-11-16T17:56:31.934Z,1.23
2022-11-16T17:58:59.728Z,1.60
2022-11-16T18:01:28.123Z,1.10
2022-11-16T18:03:55.882Z,1.30
2022-11-16T18:06:25.154Z,4.87
2022-11-16T18:08:53.580Z,1.10
2022-11-16T18:11:24.554Z,1.50
2022-11-16T18:13:54.608Z,1.60
2022-11-16T18:16:24.217Z,1.20
2022-11-16T18:18:57.316Z,1.30
2022-11-16T18:21:25.215Z,1.30
2022-11-16T18:23:52.980Z,1.17
2022-11-16T18:26:24.684Z,1.30
2022-11-16T18:28:53.723Z,1.13
2022-11-16T18:31:23.293Z,1.50
2022-11-16T18:33:52.019Z,1.13
2022-11-16T18:36:21.415Z,1.10
2022-11-16T18:38:49.590Z,1.13
2022-11-16T18:41:20.951Z,1.00
2022-11-16T18:43:53.417Z,1.10
2022-11-16T18:46:22.674Z,1.00
2022-11-16T18:48:50.412Z,1.00
2022-11-16T18:51:19.457Z,0.97
2022-11-16T18:53:47.247Z,1.30
2022-11-16T18:56:15.752Z,1.10
2022-11-16T18:58:50.344Z,1.20
2022-11-16T19:01:22.909Z,1.20
2022-11-16T19:03:50.962Z,1.00
2022-11-16T19:06:19.693Z,1.30
2022-11-16T19:08:55.127Z,1.07
2022-11-16T19:11:24.336Z,1.17
2022-11-16T19:13:54.477Z,1.33
2022-11-16T19:16:25.451Z,1.50
2022-11-16T19:18:53.975Z,1.20
2022-11-16T19:21:22.869Z,3.00
2022-11-16T19:23:52.548Z,2.93
2022-11-16T19:26:21.790Z,1.27
2022-11-16T19:28:51.057Z,1.30
2022-11-16T19:31:20.960Z,1.50
2022-11-16T19:33:55.043Z,1.37
2022-11-16T19:36:22.988Z,1.23
2022-11-16T19:38:51.113Z,1.40
2022-11-16T19:41:21.244Z,1.53
2022-11-16T19:43:49.473Z,1.37
2022-11-16T19:46:18.147Z,1.30
2022-11-16T19:48:47.171Z,1.33
2022-11-16T19:51:20.668Z,1.67
2022-11-16T19:53:48.905Z,1.30
2022-11-16T19:56:18.271Z,1.50
2022-11-16T19:58:46.701Z,1.40
2022-11-16T20:01:17.012Z,1.40
2022-11-16T20:03:45.347Z,1.67
2022-11-16T20:06:14.854Z,1.70
2022-11-16T20:08:48.470Z,1.83
2022-11-16T20:11:18.405Z,1.40
2022-11-16T20:13:46.077Z,1.77
2022-11-16T20:16:15.413Z,1.43
2022-11-16T20:18:44.182Z,1.73
2022-11-16T20:21:17.611Z,1.63
2022-11-16T20:23:46.791Z,1.70
2022-11-16T20:26:15.437Z,1.60
2022-11-16T20:28:44.437Z,1.80
2022-11-16T20:31:13.932Z,1.93
2022-11-16T20:33:42.324Z,1.50
2022-11-16T20:36:12.996Z,4.87
2022-11-16T20:38:43.923Z,2.40
2022-11-16T20:41:15.163Z,1.80
2022-11-16T20:43:44.307Z,1.70
2022-11-16T20:46:13.707Z,1.40
2022-11-16T20:48:43.731Z,1.70
2022-11-16T20:51:13.368Z,1.50
2022-11-16T20:53:41.118Z,1.47
2022-11-16T20:56:10.544Z,1.50
2022-11-16T20:58:39.750Z,1.90
2022-11-16T21:01:11.030Z,1.50
2022-11-16T21:03:39.142Z,1.80
2022-11-16T21:06:08.696Z,1.53
2022-11-16T21:08:37.245Z,1.83
2022-11-16T21:11:11.317Z,1.60
2022-11-16T21:13:57.723Z,1.97
2022-11-16T21:16:25.744Z,1.77
2022-11-16T21:18:54.639Z,2.00
2022-11-16T21:21:22.619Z,1.50
2022-11-16T21:23:52.416Z,1.93
2022-11-16T21:26:22.267Z,1.70
2022-11-16T21:28:54.559Z,2.10
2022-11-16T21:31:25.597Z,2.00
2022-11-16T21:33:54.078Z,2.00
2022-11-16T21:36:23.523Z,2.00
2022-11-16T21:38:52.029Z,1.90
2022-11-16T21:41:22.241Z,1.90
2022-11-16T21:43:51.613Z,1.97
2022-11-16T21:46:21.597Z,1.80
2022-11-16T21:48:51.027Z,1.83
2022-11-16T21:51:20.661Z,2.00
2022-11-16T21:53:48.721Z,1.70
2022-11-16T21:56:17.909Z,1.90
2022-11-16T21:58:46.496Z,1.97
2022-11-16T22:01:16.492Z,2.13
2022-11-16T22:03:44.658Z,2.10
2022-11-16T22:06:32.405Z,1.87
2022-11-16T22:09:00.288Z,2.00
2022-11-16T22:11:28.095Z,1.70
2022-11-16T22:13:55.814Z,1.70
2022-11-16T22:16:24.863Z,2.00
2022-11-16T22:18:52.631Z,1.90
2022-11-16T22:21:20.304Z,1.97
2022-11-16T22:23:47.998Z,1.80
2022-11-16T22:26:15.790Z,1.83
2022-11-16T22:28:43.478Z,2.00
2022-11-16T22:31:12.716Z,2.20
2022-11-16T22:33:42.457Z,1.93
2022-11-16T22:36:11.092Z,1.90
2022-11-16T22:38:38.818Z,2.60
2022-11-16T22:41:06.936Z,2.30
2022-11-16T22:43:36.007Z,2.43
2022-11-16T22:46:05.689Z,2.30
2022-11-16T22:48:35.066Z,2.17
2022-11-16T22:51:06.582Z,2.40
2022-11-16T22:53:35.124Z,2.13
2022-11-16T22:56:07.845Z,2.40
2022-11-16T22:58:35.916Z,2.60
2022-11-16T23:01:04.126Z,2.40
2022-11-16T23:03:32.161Z,2.50
2022-11-16T23:06:00.017Z,2.73
2022-11-16T23:08:29.556Z,2.80
2022-11-16T23:11:13.239Z,2.30
2022-11-16T23:13:58.581Z,2.53
2022-11-16T23:16:26.253Z,2.30
2022-11-16T23:18:53.987Z,2.20
2022-11-16T23:21:39.390Z,2.50
2022-11-16T23:24:28.872Z,2.50
2022-11-16T23:27:15.088Z,2.10
2022-11-16T23:29:43.590Z,2.50
2022-11-16T23:32:11.484Z,2.53
2022-11-16T23:34:39.157Z,2.20
2022-11-16T23:37:08.208Z,1.97
2022-11-16T23:39:37.253Z,2.13
2022-11-16T23:42:22.650Z,1.87
2022-11-16T23:44:50.350Z,2.50
2022-11-16T23:47:18.074Z,1.97
2022-11-16T23:49:45.753Z,2.10
2022-11-16T23:52:13.985Z,2.00
2022-11-16T23:54:43.112Z,2.10
2022-11-16T23:57:10.874Z,2.03
2022-11-16T23:59:38.613Z,2.33
